Atwell, West Virginia
Current Conditions -  °F | °C
As of 3:55 AM on Wednesday 26 Nov 2014 (Local Time) from KJFZ Reporting Station
Overcast Overcast  
Wind Chill: 37°   Ceiling: 5000
Heat Index: 42°   Visibility: 10mi
Dew Point: 31°   Wind: 7mph
Humidity: 65%   Direction: 160°SSE
Pressure: 29.95"   Gusts: NA
Location:  37.3433°N, 81.7826°W
Report Text: KJFZ 260855Z AUTO 16006KT 10SM OVC050 05/M01 A2995 RMK AO2 T00531008
Loading
Personal Weather Stations






























Interactive Weather Map New forecast layout! Learn more

10-Day Weather Forecast

Advertisements
Track Severe Weather on mobile